createdAt,value
2022-09-07T00:00:18.711Z,88.03
2022-09-07T00:01:13.909Z,87.84
2022-09-07T00:02:08.859Z,87.89
2022-09-07T00:03:03.922Z,87.92
2022-09-07T00:03:58.858Z,87.86
2022-09-07T00:04:57.153Z,87.88
2022-09-07T00:05:52.195Z,87.90
2022-09-07T00:06:47.238Z,87.94
2022-09-07T00:07:42.267Z,87.97
2022-09-07T00:08:37.305Z,87.89
2022-09-07T00:09:32.335Z,87.78
2022-09-07T00:10:27.342Z,87.71
2022-09-07T00:11:22.477Z,87.59
2022-09-07T00:12:17.391Z,87.57
2022-09-07T00:13:12.392Z,87.58
2022-09-07T00:14:07.439Z,87.77
2022-09-07T00:15:02.443Z,87.62
2022-09-07T00:15:57.717Z,87.62
2022-09-07T00:16:52.698Z,87.74
2022-09-07T00:17:47.705Z,87.82
2022-09-07T00:18:46.087Z,87.66
2022-09-07T00:19:37.806Z,87.50
2022-09-07T00:20:32.920Z,87.45
2022-09-07T00:21:27.913Z,87.24
2022-09-07T00:22:23.151Z,87.08
2022-09-07T00:23:18.427Z,87.07
2022-09-07T00:24:13.590Z,86.92
2022-09-07T00:25:08.859Z,86.86
2022-09-07T00:26:04.237Z,86.80
2022-09-07T00:26:59.231Z,86.84
2022-09-07T00:27:54.356Z,86.93
2022-09-07T00:28:49.586Z,86.95
2022-09-07T00:29:44.789Z,86.89
2022-09-07T00:30:39.890Z,87.01
2022-09-07T00:31:35.053Z,86.94
2022-09-07T00:32:30.166Z,86.93
2022-09-07T00:33:25.516Z,86.92
2022-09-07T00:34:20.626Z,86.75
2022-09-07T00:35:15.978Z,86.72
2022-09-07T00:36:11.502Z,86.63
2022-09-07T00:37:06.495Z,86.61
2022-09-07T00:38:01.635Z,86.71
2022-09-07T00:38:56.798Z,86.66
2022-09-07T00:39:52.096Z,86.67
2022-09-07T00:40:47.230Z,86.82
2022-09-07T00:41:42.486Z,86.87
2022-09-07T00:42:37.772Z,86.95
2022-09-07T00:43:32.971Z,87.09
2022-09-07T00:44:28.184Z,87.29
2022-09-07T00:45:23.555Z,87.35
2022-09-07T00:46:18.604Z,87.37
2022-09-07T00:47:13.784Z,87.50
2022-09-07T00:48:08.956Z,87.56
2022-09-07T00:49:04.161Z,87.53
2022-09-07T00:49:59.534Z,87.59
2022-09-07T00:50:54.646Z,87.62
2022-09-07T00:51:49.851Z,87.55
2022-09-07T00:52:44.972Z,87.44
2022-09-07T00:53:40.362Z,87.40
2022-09-07T00:54:35.573Z,87.26
2022-09-07T00:55:30.679Z,87.30
2022-09-07T00:56:25.904Z,87.32
2022-09-07T00:57:20.992Z,87.38
2022-09-07T00:58:16.240Z,87.33
2022-09-07T00:59:11.629Z,87.39
2022-09-07T01:00:06.585Z,87.43
2022-09-07T01:01:01.812Z,87.39
2022-09-07T01:01:57.074Z,87.29
2022-09-07T01:02:52.223Z,87.32
2022-09-07T01:03:47.108Z,87.26
2022-09-07T01:04:42.209Z,87.22
2022-09-07T01:05:37.229Z,87.14
2022-09-07T01:06:32.230Z,87.21
2022-09-07T01:07:27.260Z,87.26
2022-09-07T01:08:22.285Z,87.27
2022-09-07T01:09:17.322Z,87.27
2022-09-07T01:10:12.426Z,87.26
2022-09-07T01:11:07.505Z,87.15
2022-09-07T01:12:02.825Z,87.09
2022-09-07T01:12:57.968Z,87.02
2022-09-07T01:13:53.067Z,86.95
2022-09-07T01:14:48.356Z,86.94
2022-09-07T01:15:43.542Z,86.88
2022-09-07T01:16:38.624Z,86.92
2022-09-07T01:17:33.855Z,86.99
2022-09-07T01:18:29.095Z,86.94
2022-09-07T01:19:24.193Z,86.95
2022-09-07T01:20:20.003Z,86.94
2022-09-07T01:21:15.191Z,86.93
2022-09-07T01:22:10.994Z,86.99
2022-09-07T01:23:06.277Z,87.15
2022-09-07T01:24:01.433Z,87.37
2022-09-07T01:24:57.244Z,87.50
2022-09-07T01:25:52.413Z,87.39
2022-09-07T01:26:47.632Z,87.36
2022-09-07T01:27:44.169Z,87.37
2022-09-07T01:28:39.335Z,87.45
2022-09-07T01:29:35.200Z,87.51
2022-09-07T01:30:30.372Z,87.48
2022-09-07T01:31:25.538Z,87.38
2022-09-07T01:32:21.371Z,87.46
2022-09-07T01:33:16.650Z,87.69
2022-09-07T01:34:12.508Z,87.95
2022-09-07T01:35:07.619Z,88.20
2022-09-07T01:36:03.049Z,88.34
2022-09-07T01:36:58.924Z,88.61
2022-09-07T01:37:57.049Z,88.71
2022-09-07T01:38:49.589Z,88.79
2022-09-07T01:39:44.654Z,88.86
2022-09-07T01:40:39.716Z,88.83
2022-09-07T01:41:34.900Z,88.79
2022-09-07T01:42:30.141Z,88.80
2022-09-07T01:43:25.380Z,88.84
2022-09-07T01:44:20.280Z,88.68
2022-09-07T01:45:15.306Z,88.80
2022-09-07T01:46:10.447Z,88.85
2022-09-07T01:47:05.429Z,88.79
2022-09-07T01:48:00.615Z,88.71
2022-09-07T01:48:55.634Z,88.46
2022-09-07T01:49:52.347Z,88.43
2022-09-07T01:50:47.392Z,88.46
2022-09-07T01:51:42.443Z,88.34
2022-09-07T01:52:37.436Z,88.36
2022-09-07T01:53:32.536Z,88.27
2022-09-07T01:54:27.655Z,88.12
2022-09-07T01:55:22.746Z,88.12
2022-09-07T01:56:17.754Z,88.02
2022-09-07T01:57:12.796Z,87.84
2022-09-07T01:58:07.894Z,87.75
2022-09-07T01:59:02.908Z,87.67
2022-09-07T01:59:58.015Z,87.49
2022-09-07T02:00:53.164Z,87.21
2022-09-07T02:01:48.435Z,86.88
2022-09-07T02:02:43.793Z,87.01
2022-09-07T02:03:39.421Z,87.17
2022-09-07T02:04:34.581Z,87.14
2022-09-07T02:05:30.451Z,87.28
2022-09-07T02:06:25.713Z,87.32
2022-09-07T02:07:21.096Z,87.30
2022-09-07T02:08:16.861Z,87.28
2022-09-07T02:09:11.959Z,87.24
2022-09-07T02:10:07.067Z,87.42
2022-09-07T02:11:03.579Z,87.42
2022-09-07T02:11:58.884Z,87.21
2022-09-07T02:12:54.660Z,87.05
2022-09-07T02:13:49.882Z,86.96
2022-09-07T02:14:48.288Z,87.05
2022-09-07T02:15:41.927Z,86.93
2022-09-07T02:16:36.121Z,86.90
2022-09-07T02:17:31.929Z,86.91
2022-09-07T02:18:27.228Z,87.08
2022-09-07T02:19:22.375Z,87.03
2022-09-07T02:20:17.594Z,86.83
2022-09-07T02:21:12.736Z,87.00
2022-09-07T02:22:09.284Z,86.98
2022-09-07T02:23:04.454Z,86.97
2022-09-07T02:24:00.276Z,87.10
2022-09-07T02:24:55.477Z,87.10
2022-09-07T02:25:50.770Z,87.21
2022-09-07T02:26:46.493Z,87.01
2022-09-07T02:27:41.604Z,86.94
2022-09-07T02:28:37.423Z,86.84
2022-09-07T02:29:32.496Z,86.69
2022-09-07T02:30:27.899Z,86.77
2022-09-07T02:31:23.702Z,86.83
2022-09-07T02:32:18.873Z,86.63
2022-09-07T02:33:13.972Z,86.68
2022-09-07T02:34:10.424Z,86.71
2022-09-07T02:35:05.737Z,86.73
2022-09-07T02:36:01.452Z,86.76
2022-09-07T02:36:56.761Z,86.62
2022-09-07T02:37:51.873Z,86.46
2022-09-07T02:38:47.092Z,86.29
2022-09-07T02:39:42.492Z,86.06
2022-09-07T02:40:37.460Z,85.97
2022-09-07T02:41:32.711Z,85.92
2022-09-07T02:42:28.551Z,86.17
2022-09-07T02:43:23.780Z,86.18
2022-09-07T02:44:19.132Z,86.24
2022-09-07T02:45:14.827Z,86.46
2022-09-07T02:46:10.224Z,86.40
2022-09-07T02:47:05.538Z,86.34
2022-09-07T02:48:00.489Z,86.36
2022-09-07T02:48:55.568Z,86.33
2022-09-07T02:49:50.679Z,85.89
2022-09-07T02:50:45.779Z,85.92
2022-09-07T02:51:40.888Z,86.16
2022-09-07T02:52:35.883Z,86.11
2022-09-07T02:53:30.967Z,86.07
2022-09-07T02:54:25.989Z,85.92
2022-09-07T02:55:21.087Z,85.71
2022-09-07T02:56:16.222Z,85.73
2022-09-07T02:57:11.377Z,85.80
2022-09-07T02:58:06.269Z,85.80
2022-09-07T02:59:01.390Z,85.78
2022-09-07T02:59:56.513Z,85.61
2022-09-07T03:00:51.724Z,85.49
2022-09-07T03:01:46.959Z,85.50
2022-09-07T03:02:42.036Z,85.35
2022-09-07T03:03:37.005Z,85.30
2022-09-07T03:04:32.113Z,85.26
2022-09-07T03:05:27.204Z,85.08
2022-09-07T03:06:22.208Z,85.07
2022-09-07T03:07:17.320Z,85.25
2022-09-07T03:08:12.454Z,85.40
2022-09-07T03:09:10.394Z,85.28
2022-09-07T03:10:05.519Z,85.26
2022-09-07T03:11:00.661Z,85.21
2022-09-07T03:11:55.909Z,85.10
2022-09-07T03:12:51.020Z,85.03
2022-09-07T03:13:46.124Z,84.87
2022-09-07T03:14:41.252Z,85.17
2022-09-07T03:15:36.308Z,85.06
2022-09-07T03:16:31.272Z,84.99
2022-09-07T03:17:26.366Z,85.04
2022-09-07T03:18:21.478Z,85.15
2022-09-07T03:19:16.537Z,85.29
2022-09-07T03:20:11.602Z,85.40
2022-09-07T03:21:11.023Z,85.48
2022-09-07T03:22:06.108Z,85.61
2022-09-07T03:23:01.140Z,85.81
2022-09-07T03:23:56.128Z,85.92
2022-09-07T03:24:51.162Z,85.80
2022-09-07T03:25:46.249Z,86.10
2022-09-07T03:26:41.334Z,86.22
2022-09-07T03:27:36.302Z,86.18
2022-09-07T03:28:31.633Z,86.09
2022-09-07T03:29:26.606Z,86.08
2022-09-07T03:30:21.609Z,85.99
2022-09-07T03:31:16.645Z,85.86
2022-09-07T03:32:11.661Z,85.92
2022-09-07T03:33:06.635Z,85.72
2022-09-07T03:34:01.790Z,85.58
2022-09-07T03:34:57.709Z,85.54
2022-09-07T03:35:52.819Z,85.58
2022-09-07T03:36:48.757Z,85.56
2022-09-07T03:37:43.860Z,85.41
2022-09-07T03:38:39.233Z,85.41
2022-09-07T03:39:35.269Z,85.31
2022-09-07T03:40:30.287Z,85.29
2022-09-07T03:41:25.684Z,85.39
2022-09-07T03:42:21.829Z,85.42
2022-09-07T03:43:17.015Z,85.35
2022-09-07T03:44:12.894Z,85.41
2022-09-07T03:45:08.035Z,85.31
2022-09-07T03:46:03.549Z,85.40
2022-09-07T03:46:59.159Z,85.40
2022-09-07T03:47:54.477Z,85.42
2022-09-07T03:48:50.298Z,85.42
2022-09-07T03:49:45.585Z,85.48
2022-09-07T03:50:40.601Z,85.75
2022-09-07T03:51:35.668Z,85.59
2022-09-07T03:52:30.746Z,85.43
2022-09-07T03:53:26.156Z,85.57
2022-09-07T03:54:20.971Z,85.56
2022-09-07T03:55:15.997Z,85.49
2022-09-07T03:56:11.000Z,85.52
2022-09-07T03:57:05.995Z,85.54
2022-09-07T03:58:01.050Z,85.55
2022-09-07T03:58:56.098Z,85.71
2022-09-07T03:59:51.139Z,85.49
2022-09-07T04:00:46.161Z,85.79
2022-09-07T04:01:41.379Z,85.87
2022-09-07T04:02:36.327Z,86.04
2022-09-07T04:03:35.439Z,86.05
2022-09-07T04:04:30.478Z,86.02
2022-09-07T04:05:25.655Z,85.98
2022-09-07T04:06:20.668Z,85.92
2022-09-07T04:07:15.730Z,86.02
2022-09-07T04:08:10.788Z,86.01
2022-09-07T04:09:05.861Z,86.06
2022-09-07T04:10:01.051Z,86.09
2022-09-07T04:10:55.924Z,86.04
2022-09-07T04:11:50.996Z,86.12
2022-09-07T04:12:49.613Z,86.08
2022-09-07T04:13:44.689Z,85.91
2022-09-07T04:14:39.786Z,85.81
2022-09-07T04:15:35.026Z,85.89
2022-09-07T04:16:30.091Z,85.89
2022-09-07T04:17:25.075Z,85.91
2022-09-07T04:18:20.197Z,85.96
2022-09-07T04:19:15.190Z,85.99
2022-09-07T04:20:10.643Z,86.04
2022-09-07T04:21:05.743Z,85.97
2022-09-07T04:22:00.886Z,85.97
2022-09-07T04:22:56.726Z,86.10
2022-09-07T04:23:51.853Z,86.12
2022-09-07T04:24:47.654Z,86.05
2022-09-07T04:25:42.909Z,85.86
2022-09-07T04:26:38.236Z,85.96
2022-09-07T04:27:34.096Z,86.09
2022-09-07T04:28:29.358Z,86.11
2022-09-07T04:29:24.611Z,86.21
2022-09-07T04:30:20.944Z,86.19
2022-09-07T04:31:16.195Z,86.21
2022-09-07T04:32:15.724Z,86.16
2022-09-07T04:33:07.260Z,86.36
2022-09-07T04:34:02.639Z,86.30
2022-09-07T04:34:58.224Z,86.23
2022-09-07T04:35:53.519Z,86.31
2022-09-07T04:36:49.401Z,86.41
2022-09-07T04:37:44.487Z,86.53
2022-09-07T04:38:39.941Z,86.56
2022-09-07T04:39:35.832Z,86.64
2022-09-07T04:40:30.910Z,86.80
2022-09-07T04:41:26.198Z,86.76
2022-09-07T04:42:22.513Z,86.70
2022-09-07T04:43:17.725Z,86.73
2022-09-07T04:44:16.778Z,86.78
2022-09-07T04:45:08.743Z,86.82
2022-09-07T04:46:04.043Z,86.86
2022-09-07T04:46:59.838Z,86.91
2022-09-07T04:47:55.216Z,86.89
2022-09-07T04:48:50.897Z,86.86
2022-09-07T04:49:46.245Z,86.82
2022-09-07T04:50:41.673Z,86.80
2022-09-07T04:51:37.375Z,86.81
2022-09-07T04:52:32.636Z,86.84
2022-09-07T04:53:28.255Z,86.88
2022-09-07T04:54:24.366Z,86.88
2022-09-07T04:55:19.706Z,86.86
2022-09-07T04:56:17.039Z,86.77
2022-09-07T04:57:10.786Z,86.70
2022-09-07T04:58:06.175Z,86.67
2022-09-07T04:59:01.981Z,86.63
2022-09-07T04:59:57.353Z,86.66
2022-09-07T05:00:53.096Z,86.56
2022-09-07T05:01:48.450Z,86.48
2022-09-07T05:02:43.989Z,86.44
2022-09-07T05:03:39.617Z,86.42
2022-09-07T05:04:34.904Z,86.39
2022-09-07T05:05:30.193Z,86.40
2022-09-07T05:06:26.507Z,86.46
2022-09-07T05:07:21.871Z,86.50
2022-09-07T05:08:17.625Z,86.52
2022-09-07T05:09:12.962Z,86.42
2022-09-07T05:10:08.289Z,86.46
2022-09-07T05:11:04.050Z,86.53
2022-09-07T05:11:59.475Z,86.53
2022-09-07T05:12:55.259Z,86.57
2022-09-07T05:13:50.430Z,86.48
2022-09-07T05:14:45.698Z,86.53
2022-09-07T05:15:41.580Z,86.58
2022-09-07T05:16:36.945Z,86.47
2022-09-07T05:17:32.334Z,86.44
2022-09-07T05:18:28.663Z,86.35
2022-09-07T05:19:24.044Z,86.36
2022-09-07T05:20:20.363Z,86.35
2022-09-07T05:21:14.753Z,86.32
2022-09-07T05:22:10.707Z,86.25
2022-09-07T05:23:05.887Z,86.20
2022-09-07T05:24:01.342Z,86.29
2022-09-07T05:24:57.343Z,86.33
2022-09-07T05:25:52.448Z,86.42
2022-09-07T05:26:47.924Z,86.50
2022-09-07T05:27:44.045Z,86.52
2022-09-07T05:28:39.355Z,86.52
2022-09-07T05:30:06.160Z,86.65
2022-09-07T05:31:28.574Z,86.64
2022-09-07T05:32:22.979Z,86.71
2022-09-07T05:33:18.889Z,86.71
2022-09-07T05:34:30.188Z,86.69
2022-09-07T05:35:11.294Z,86.65
2022-09-07T05:36:05.586Z,86.57
2022-09-07T05:37:00.969Z,86.37
2022-09-07T05:37:57.451Z,86.40
2022-09-07T05:38:52.805Z,86.36
2022-09-07T05:39:48.456Z,86.31
2022-09-07T05:40:44.544Z,86.36
2022-09-07T05:41:39.959Z,86.38
2022-09-07T05:42:35.486Z,86.31
2022-09-07T05:43:31.489Z,86.26
2022-09-07T05:45:23.441Z,86.23
2022-09-07T05:46:17.881Z,86.29
2022-09-07T05:47:12.850Z,86.23
2022-09-07T05:48:07.882Z,86.36
2022-09-07T05:49:03.038Z,86.44
2022-09-07T05:49:58.058Z,86.45
2022-09-07T05:50:53.099Z,86.44
2022-09-07T05:51:48.212Z,86.24
2022-09-07T05:52:43.298Z,86.22
2022-09-07T05:53:38.397Z,86.14
2022-09-07T05:54:33.371Z,86.15
2022-09-07T05:55:30.539Z,86.18
2022-09-07T05:56:23.508Z,86.15
2022-09-07T05:57:18.717Z,85.97
2022-09-07T05:58:14.096Z,85.81
2022-09-07T05:59:10.429Z,85.49
2022-09-07T06:00:05.827Z,85.27
2022-09-07T06:01:01.654Z,85.23
2022-09-07T06:01:57.050Z,85.05
2022-09-07T06:02:52.499Z,84.94
2022-09-07T06:03:48.114Z,85.00
2022-09-07T06:04:43.548Z,85.01
2022-09-07T06:05:39.242Z,85.22
2022-09-07T06:06:34.686Z,85.45
2022-09-07T06:07:30.219Z,85.52
2022-09-07T06:08:25.949Z,85.51
2022-09-07T06:09:21.447Z,85.68
2022-09-07T06:11:14.394Z,85.78
2022-09-07T06:12:08.884Z,85.83
2022-09-07T06:13:04.590Z,85.81
2022-09-07T06:14:00.061Z,85.61
2022-09-07T06:14:55.498Z,85.74
2022-09-07T06:15:51.622Z,85.95
2022-09-07T06:16:46.974Z,86.03
2022-09-07T06:17:42.657Z,86.07
2022-09-07T06:18:38.080Z,86.07
2022-09-07T06:19:33.514Z,85.78
2022-09-07T06:20:29.350Z,85.56
2022-09-07T06:21:24.878Z,85.27
2022-09-07T06:22:20.309Z,85.17
2022-09-07T06:23:16.610Z,85.00
2022-09-07T06:24:11.984Z,84.58
2022-09-07T06:25:07.829Z,84.47
2022-09-07T06:26:03.221Z,84.12
2022-09-07T06:26:58.652Z,84.07
2022-09-07T06:27:54.416Z,84.04
2022-09-07T06:28:51.473Z,84.05
2022-09-07T06:29:45.792Z,84.07
2022-09-07T06:30:41.129Z,83.83
2022-09-07T06:32:48.612Z,83.37
2022-09-07T06:33:28.830Z,83.19
2022-09-07T06:34:23.193Z,82.97
2022-09-07T06:35:18.211Z,82.83
2022-09-07T06:36:13.319Z,82.87
2022-09-07T06:37:08.338Z,83.00
2022-09-07T06:38:03.438Z,83.06
2022-09-07T06:38:58.478Z,83.12
2022-09-07T06:39:53.622Z,83.10
2022-09-07T06:40:48.829Z,83.00
2022-09-07T06:42:05.143Z,83.06
2022-09-07T06:42:46.191Z,83.04
2022-09-07T06:43:45.499Z,83.32
2022-09-07T06:44:37.369Z,83.50
2022-09-07T06:45:32.166Z,83.64
2022-09-07T06:47:24.055Z,83.78
2022-09-07T06:48:18.953Z,84.13
2022-09-07T06:49:14.328Z,83.99
2022-09-07T06:50:09.760Z,84.04
2022-09-07T06:51:06.062Z,83.98
2022-09-07T06:52:01.496Z,83.91
2022-09-07T06:55:04.413Z,84.12
2022-09-07T06:55:44.193Z,84.40
2022-09-07T06:56:38.244Z,84.04
2022-09-07T06:57:33.342Z,84.08
2022-09-07T06:58:28.421Z,84.05
2022-09-07T06:59:23.392Z,84.25
2022-09-07T07:00:18.502Z,84.27
2022-09-07T07:01:13.777Z,84.28
2022-09-07T07:02:08.750Z,84.38
2022-09-07T07:03:03.811Z,84.66
2022-09-07T07:03:58.830Z,84.80
2022-09-07T07:04:53.852Z,84.94
2022-09-07T07:05:48.971Z,84.99
2022-09-07T07:06:44.027Z,84.92
2022-09-07T07:07:39.061Z,84.90
2022-09-07T07:08:38.270Z,84.79
2022-09-07T07:09:33.331Z,84.85
2022-09-07T07:10:28.365Z,85.01
2022-09-07T07:11:23.388Z,85.04
2022-09-07T07:13:44.331Z,85.27
2022-09-07T07:14:44.087Z,85.11
2022-09-07T07:15:36.070Z,84.76
2022-09-07T07:16:30.636Z,84.64
2022-09-07T07:17:26.124Z,84.46
2022-09-07T07:18:21.592Z,84.34
2022-09-07T07:19:17.042Z,84.25
2022-09-07T07:20:12.623Z,84.13
2022-09-07T07:21:08.055Z,83.95
2022-09-07T07:23:00.014Z,84.44
2022-09-07T07:23:54.334Z,84.67
2022-09-07T07:24:49.727Z,84.63
2022-09-07T07:25:45.164Z,84.36
2022-09-07T07:26:40.778Z,84.24
2022-09-07T07:27:36.138Z,84.18
2022-09-07T07:29:28.404Z,83.93
2022-09-07T07:30:22.709Z,83.90
2022-09-07T07:31:18.354Z,83.91
2022-09-07T07:32:13.894Z,83.66
2022-09-07T07:33:09.398Z,83.38
2022-09-07T07:34:04.923Z,83.41
2022-09-07T07:35:00.277Z,83.27
2022-09-07T07:35:55.682Z,83.25
2022-09-07T07:36:51.294Z,83.01
2022-09-07T07:37:46.583Z,82.58
2022-09-07T07:40:36.251Z,81.88
2022-09-07T07:42:24.764Z,82.18
2022-09-07T07:43:19.262Z,82.00
2022-09-07T07:44:14.793Z,81.87
2022-09-07T07:46:06.857Z,81.99
2022-09-07T07:47:01.150Z,81.84
2022-09-07T07:47:56.461Z,81.76
2022-09-07T07:48:52.215Z,81.80
2022-09-07T07:49:47.608Z,81.86
2022-09-07T07:50:42.914Z,81.50
2022-09-07T07:52:50.736Z,81.21
2022-09-07T07:53:45.686Z,80.76
2022-09-07T07:54:25.903Z,80.02
2022-09-07T07:56:16.880Z,78.05
2022-09-07T07:57:11.592Z,77.78
2022-09-07T07:58:06.917Z,77.06
2022-09-07T07:59:02.500Z,76.91
2022-09-07T07:59:57.951Z,75.35
2022-09-07T08:00:55.925Z,74.83
2022-09-07T08:01:48.828Z,74.75
2022-09-07T08:02:44.689Z,74.16
2022-09-07T08:03:39.884Z,73.90
2022-09-07T08:04:35.359Z,73.37
2022-09-07T08:05:30.865Z,74.24
2022-09-07T08:06:26.310Z,74.86
2022-09-07T08:07:21.750Z,74.97
2022-09-07T08:08:17.478Z,74.99
2022-09-07T08:09:12.816Z,74.93
2022-09-07T08:10:08.242Z,75.29
2022-09-07T08:11:03.616Z,74.84
2022-09-07T08:11:59.009Z,74.64
2022-09-07T08:12:54.734Z,74.66
2022-09-07T08:13:50.093Z,73.83
2022-09-07T08:14:45.480Z,73.36
2022-09-07T08:15:40.874Z,73.50
2022-09-07T08:16:36.527Z,73.53
2022-09-07T08:17:31.983Z,73.94
2022-09-07T08:18:27.393Z,73.61
2022-09-07T08:19:23.064Z,73.87
2022-09-07T08:20:18.726Z,73.82
2022-09-07T08:21:14.083Z,74.07
2022-09-07T08:22:09.676Z,74.34
2022-09-07T08:23:04.924Z,74.06
2022-09-07T08:24:00.612Z,73.94
2022-09-07T08:24:56.028Z,73.33
2022-09-07T08:25:51.627Z,73.12
2022-09-07T08:26:47.008Z,73.14
2022-09-07T08:27:42.748Z,73.37
2022-09-07T08:28:38.391Z,73.78
2022-09-07T08:29:35.342Z,73.60
2022-09-07T08:30:29.188Z,73.23
2022-09-07T08:31:24.758Z,72.77
2022-09-07T08:32:20.272Z,72.25
2022-09-07T08:33:15.789Z,71.43
2022-09-07T08:34:11.320Z,71.16
2022-09-07T08:35:06.727Z,70.88
2022-09-07T08:36:02.103Z,70.46
2022-09-07T08:36:57.873Z,69.50
2022-09-07T08:37:53.137Z,69.01
2022-09-07T08:38:48.699Z,68.70
2022-09-07T08:39:44.193Z,67.86
2022-09-07T08:40:39.124Z,66.81
2022-09-07T08:41:34.191Z,66.76
2022-09-07T08:42:29.432Z,66.88
2022-09-07T08:43:24.515Z,67.12
2022-09-07T08:44:19.657Z,66.86
2022-09-07T08:45:14.750Z,66.77
2022-09-07T08:46:09.768Z,66.70
2022-09-07T08:47:04.825Z,66.98
2022-09-07T08:47:59.783Z,66.99
2022-09-07T08:48:55.060Z,66.54
2022-09-07T08:49:50.009Z,66.84
2022-09-07T08:50:45.094Z,66.99
2022-09-07T08:51:40.188Z,66.12
2022-09-07T08:52:35.515Z,65.63
2022-09-07T08:53:31.026Z,65.35
2022-09-07T08:54:26.310Z,65.55
2022-09-07T08:55:21.699Z,66.39
2022-09-07T08:56:17.230Z,67.17
2022-09-07T08:57:28.029Z,67.59
2022-09-07T08:58:18.130Z,67.81
2022-09-07T08:59:04.531Z,67.45
2022-09-07T08:59:58.962Z,67.19
2022-09-07T09:03:28.619Z,66.55
2022-09-07T09:05:16.204Z,66.43
2022-09-07T09:05:31.718Z,66.79
2022-09-07T09:06:11.234Z,67.17
2022-09-07T09:06:25.864Z,67.51
2022-09-07T09:07:20.738Z,67.65
2022-09-07T09:08:15.844Z,67.77
2022-09-07T09:09:11.262Z,68.06
2022-09-07T09:10:08.196Z,68.20
2022-09-07T09:11:03.717Z,67.88
2022-09-07T09:11:59.217Z,67.04
2022-09-07T09:12:54.222Z,66.33
2022-09-07T09:13:49.295Z,65.63
2022-09-07T09:14:44.443Z,64.95
2022-09-07T09:15:39.486Z,64.33
2022-09-07T09:16:34.458Z,63.86
2022-09-07T09:17:29.588Z,64.47
2022-09-07T09:18:24.759Z,64.27
2022-09-07T09:19:19.683Z,64.02
2022-09-07T09:20:14.839Z,63.99
2022-09-07T09:21:09.762Z,62.73
2022-09-07T09:22:05.134Z,61.79
2022-09-07T09:23:00.521Z,61.23
2022-09-07T09:23:56.139Z,61.86
2022-09-07T09:24:51.752Z,61.72
2022-09-07T09:25:47.013Z,61.16
2022-09-07T09:26:42.371Z,61.19
2022-09-07T09:27:37.861Z,61.21
2022-09-07T09:28:33.706Z,61.01
2022-09-07T09:29:28.786Z,60.81
2022-09-07T09:30:24.313Z,60.93
2022-09-07T09:31:20.151Z,60.99
2022-09-07T09:32:15.519Z,60.86
2022-09-07T09:33:14.526Z,60.47
2022-09-07T09:34:09.939Z,60.60
2022-09-07T09:35:05.592Z,60.21
2022-09-07T09:36:01.077Z,60.31
2022-09-07T09:36:56.408Z,59.77
2022-09-07T09:37:52.015Z,59.67
2022-09-07T09:38:47.291Z,60.10
2022-09-07T09:39:42.975Z,60.34
2022-09-07T09:40:38.491Z,60.21
2022-09-07T09:41:34.031Z,60.18
2022-09-07T09:42:29.551Z,59.86
2022-09-07T09:43:25.057Z,59.54
2022-09-07T09:44:20.608Z,59.08
2022-09-07T09:45:15.683Z,59.09
2022-09-07T09:46:12.365Z,58.61
2022-09-07T09:48:02.065Z,57.65
2022-09-07T09:48:56.122Z,57.38
2022-09-07T09:49:51.196Z,57.38
2022-09-07T09:52:45.381Z,57.58
2022-09-07T09:53:32.558Z,57.54
2022-09-07T09:54:26.569Z,57.55
2022-09-07T09:55:34.295Z,57.56
2022-09-07T09:56:21.005Z,57.84
2022-09-07T09:57:15.668Z,57.16
2022-09-07T09:59:56.698Z,56.21
2022-09-07T10:00:05.744Z,56.04
2022-09-07T10:04:02.664Z,57.43
2022-09-07T10:04:39.328Z,58.84
2022-09-07T10:05:33.529Z,59.19
2022-09-07T10:06:28.669Z,59.23
2022-09-07T10:07:23.663Z,58.85
2022-09-07T10:08:18.776Z,57.49
2022-09-07T10:09:13.872Z,57.19
2022-09-07T10:10:09.003Z,56.35
2022-09-07T10:11:04.512Z,55.93
2022-09-07T10:12:08.033Z,55.66
2022-09-07T10:12:56.574Z,56.03
2022-09-07T10:13:51.184Z,55.12
2022-09-07T10:14:46.704Z,56.47
2022-09-07T10:15:42.341Z,56.74
2022-09-07T10:16:37.356Z,56.87
2022-09-07T10:17:32.335Z,56.44
2022-09-07T10:18:27.382Z,56.21
2022-09-07T10:19:25.180Z,54.81
2022-09-07T10:20:20.170Z,54.36
2022-09-07T10:21:15.276Z,54.93
2022-09-07T10:22:10.370Z,55.22
2022-09-07T10:23:05.415Z,55.10
2022-09-07T10:24:00.430Z,54.82
2022-09-07T10:24:55.440Z,54.26
2022-09-07T10:25:50.533Z,54.80
2022-09-07T10:26:46.699Z,55.51
2022-09-07T10:27:41.943Z,56.20
2022-09-07T10:29:36.026Z,55.08
2022-09-07T10:30:28.542Z,54.67
2022-09-07T10:31:24.067Z,54.91
2022-09-07T10:32:19.823Z,54.46
2022-09-07T10:33:15.344Z,55.00
2022-09-07T10:34:26.509Z,54.97
2022-09-07T10:35:07.422Z,55.61
2022-09-07T10:36:01.496Z,56.01
2022-09-07T10:36:56.581Z,56.09
2022-09-07T10:37:51.652Z,56.66
2022-09-07T10:38:46.583Z,56.01
2022-09-07T10:39:41.768Z,56.05
2022-09-07T10:40:36.787Z,56.36
2022-09-07T10:41:31.911Z,56.13
2022-09-07T10:42:28.804Z,56.09
2022-09-07T10:43:23.902Z,56.16
2022-09-07T10:44:19.031Z,56.41
2022-09-07T10:45:14.057Z,55.89
2022-09-07T10:46:09.342Z,55.13
2022-09-07T10:47:04.189Z,55.05
2022-09-07T10:47:59.296Z,55.05
2022-09-07T10:48:54.280Z,54.10
2022-09-07T10:50:46.691Z,52.42
2022-09-07T10:51:41.134Z,51.68
2022-09-07T10:52:36.490Z,51.47
2022-09-07T10:53:47.628Z,52.36
2022-09-07T10:54:30.584Z,52.90
2022-09-07T10:55:23.169Z,53.37
2022-09-07T10:56:18.520Z,53.01
2022-09-07T10:57:14.017Z,53.89
2022-09-07T10:58:09.510Z,53.26
2022-09-07T10:59:04.860Z,52.94
2022-09-07T11:00:14.931Z,53.09
2022-09-07T11:00:55.799Z,52.26
2022-09-07T11:01:49.873Z,51.17
2022-09-07T11:03:24.995Z,50.69
2022-09-07T11:03:41.461Z,50.36
2022-09-07T11:04:35.188Z,51.75
2022-09-07T11:05:37.015Z,52.23
2022-09-07T11:06:29.212Z,52.17
2022-09-07T11:07:23.791Z,53.09
2022-09-07T11:08:19.326Z,52.83
2022-09-07T11:09:17.195Z,52.37
2022-09-07T11:10:10.256Z,51.88
2022-09-07T11:11:05.931Z,53.16
2022-09-07T11:12:02.107Z,52.82
2022-09-07T11:12:56.644Z,51.90
2022-09-07T11:14:11.902Z,51.69
2022-09-07T11:14:48.708Z,51.40
2022-09-07T11:15:43.273Z,50.85
2022-09-07T11:16:54.177Z,51.12
2022-09-07T11:17:35.138Z,51.30
2022-09-07T11:18:29.744Z,51.56
2022-09-07T11:19:39.994Z,51.92
2022-09-07T11:20:20.711Z,52.26
2022-09-07T11:21:14.918Z,51.39
2022-09-07T11:22:09.755Z,51.29
2022-09-07T11:23:04.826Z,50.21
2022-09-07T11:24:00.432Z,51.24
2022-09-07T11:25:53.579Z,50.91
2022-09-07T11:26:48.125Z,50.43
2022-09-07T11:27:43.583Z,50.08
2022-09-07T11:28:38.848Z,48.28
2022-09-07T11:29:34.402Z,48.37
2022-09-07T11:30:29.917Z,47.69
2022-09-07T11:31:25.489Z,47.86
2022-09-07T11:32:20.762Z,48.66
2022-09-07T11:33:16.241Z,48.79
2022-09-07T11:34:27.030Z,48.57
2022-09-07T11:35:08.206Z,47.83
2022-09-07T11:36:02.657Z,47.29
2022-09-07T11:36:58.387Z,48.22
2022-09-07T11:37:53.754Z,49.02
2022-09-07T11:38:48.843Z,50.02
2022-09-07T11:39:44.030Z,49.19
2022-09-07T11:40:39.045Z,48.96
2022-09-07T11:41:34.057Z,48.89
2022-09-07T11:42:44.601Z,48.44
2022-09-07T11:43:25.196Z,48.16
2022-09-07T11:44:19.214Z,48.91
2022-09-07T11:45:14.316Z,49.89
2022-09-07T11:46:09.695Z,50.07
2022-09-07T11:47:04.704Z,50.14
2022-09-07T11:47:59.672Z,50.60
2022-09-07T11:48:56.152Z,51.24
2022-09-07T11:49:54.104Z,51.09
2022-09-07T11:50:47.240Z,50.96
2022-09-07T11:51:42.767Z,50.74
2022-09-07T11:52:38.282Z,50.24
2022-09-07T11:53:33.922Z,49.34
2022-09-07T11:54:29.326Z,49.82
2022-09-07T11:55:24.837Z,48.53
2022-09-07T11:56:20.621Z,47.55
2022-09-07T11:57:16.447Z,47.54
2022-09-07T11:58:11.932Z,46.96
2022-09-07T11:59:07.441Z,46.83
2022-09-07T12:00:02.864Z,46.56
2022-09-07T12:00:58.264Z,46.38
2022-09-07T12:01:53.240Z,46.16
2022-09-07T12:02:59.319Z,45.96
2022-09-07T12:03:44.598Z,45.87
2022-09-07T12:04:38.541Z,45.64
2022-09-07T12:05:33.498Z,45.66
2022-09-07T12:06:28.759Z,44.95
2022-09-07T12:07:23.812Z,45.27
2022-09-07T12:08:20.674Z,45.57
2022-09-07T12:09:16.560Z,45.69
2022-09-07T12:10:11.841Z,45.60
2022-09-07T12:11:07.338Z,44.88
2022-09-07T12:12:02.842Z,45.01
2022-09-07T12:12:58.353Z,43.20
2022-09-07T12:13:53.865Z,44.13
2022-09-07T12:14:49.361Z,44.73
2022-09-07T12:15:44.890Z,45.71
2022-09-07T12:16:40.555Z,46.07
2022-09-07T12:17:36.100Z,45.52
2022-09-07T12:18:31.253Z,45.02
2022-09-07T12:19:26.202Z,45.40